sensor_id;sensor_type;location;lat;lon;timestamp;P1;durP1;ratioP1;P2;durP2;ratioP2
11090;SDS011;5599;52.210;21.046;2022-07-06T00:02:18;6.67;;;6.07;;
11090;SDS011;5599;52.210;21.046;2022-07-06T00:04:47;6.73;;;6.10;;
11090;SDS011;5599;52.210;21.046;2022-07-06T00:07:18;6.30;;;5.80;;
11090;SDS011;5599;52.210;21.046;2022-07-06T00:09:48;6.60;;;6.03;;
11090;SDS011;5599;52.210;21.046;2022-07-06T00:12:18;6.63;;;6.03;;
11090;SDS011;5599;52.210;21.046;2022-07-06T00:14:47;6.00;;;5.43;;
11090;SDS011;5599;52.210;21.046;2022-07-06T00:17:16;6.60;;;6.00;;
11090;SDS011;5599;52.210;21.046;2022-07-06T00:19:45;6.93;;;5.80;;
11090;SDS011;5599;52.210;21.046;2022-07-06T00:22:15;6.60;;;6.00;;
11090;SDS011;5599;52.210;21.046;2022-07-06T00:24:45;6.17;;;5.57;;
11090;SDS011;5599;52.210;21.046;2022-07-06T00:27:14;6.70;;;6.07;;
11090;SDS011;5599;52.210;21.046;2022-07-06T00:29:44;6.67;;;6.17;;
11090;SDS011;5599;52.210;21.046;2022-07-06T00:32:13;6.40;;;5.80;;
11090;SDS011;5599;52.210;21.046;2022-07-06T00:34:43;7.00;;;6.33;;
11090;SDS011;5599;52.210;21.046;2022-07-06T00:37:12;7.07;;;5.90;;
11090;SDS011;5599;52.210;21.046;2022-07-06T00:39:42;6.43;;;5.83;;
11090;SDS011;5599;52.210;21.046;2022-07-06T00:42:13;5.93;;;5.40;;
11090;SDS011;5599;52.210;21.046;2022-07-06T00:44:43;5.70;;;5.20;;
11090;SDS011;5599;52.210;21.046;2022-07-06T00:47:12;5.47;;;4.93;;
11090;SDS011;5599;52.210;21.046;2022-07-06T00:49:41;6.30;;;5.20;;
11090;SDS011;5599;52.210;21.046;2022-07-06T00:52:41;7.47;;;4.87;;
11090;SDS011;5599;52.210;21.046;2022-07-06T00:55:11;6.30;;;4.63;;
11090;SDS011;5599;52.210;21.046;2022-07-06T00:57:43;5.23;;;4.73;;
11090;SDS011;5599;52.210;21.046;2022-07-06T01:00:13;5.53;;;4.77;;
11090;SDS011;5599;52.210;21.046;2022-07-06T01:02:45;4.77;;;4.27;;
11090;SDS011;5599;52.210;21.046;2022-07-06T01:05:15;5.57;;;4.77;;
11090;SDS011;5599;52.210;21.046;2022-07-06T01:07:45;5.27;;;4.17;;
11090;SDS011;5599;52.210;21.046;2022-07-06T01:10:16;4.73;;;4.20;;
11090;SDS011;5599;52.210;21.046;2022-07-06T01:12:48;5.28;;;4.63;;
11090;SDS011;5599;52.210;21.046;2022-07-06T01:15:18;5.20;;;4.80;;
11090;SDS011;5599;52.210;21.046;2022-07-06T01:17:50;8.43;;;4.33;;
11090;SDS011;5599;52.210;21.046;2022-07-06T01:20:27;5.23;;;4.73;;
11090;SDS011;5599;52.210;21.046;2022-07-06T01:22:58;6.73;;;4.77;;
11090;SDS011;5599;52.210;21.046;2022-07-06T01:25:28;4.40;;;4.10;;
11090;SDS011;5599;52.210;21.046;2022-07-06T01:27:58;7.70;;;5.23;;
11090;SDS011;5599;52.210;21.046;2022-07-06T01:30:30;5.33;;;4.83;;
11090;SDS011;5599;52.210;21.046;2022-07-06T01:33:01;6.20;;;4.60;;
11090;SDS011;5599;52.210;21.046;2022-07-06T01:35:33;5.00;;;4.60;;
11090;SDS011;5599;52.210;21.046;2022-07-06T01:38:05;4.93;;;4.50;;
11090;SDS011;5599;52.210;21.046;2022-07-06T01:40:35;4.40;;;4.00;;
11090;SDS011;5599;52.210;21.046;2022-07-06T01:43:04;4.50;;;4.10;;
11090;SDS011;5599;52.210;21.046;2022-07-06T01:45:33;5.13;;;4.30;;
11090;SDS011;5599;52.210;21.046;2022-07-06T01:48:04;4.63;;;4.23;;
11090;SDS011;5599;52.210;21.046;2022-07-06T01:50:36;4.60;;;4.20;;
11090;SDS011;5599;52.210;21.046;2022-07-06T01:53:05;5.83;;;4.30;;
11090;SDS011;5599;52.210;21.046;2022-07-06T01:55:34;4.83;;;4.37;;
11090;SDS011;5599;52.210;21.046;2022-07-06T01:58:04;4.40;;;3.90;;
11090;SDS011;5599;52.210;21.046;2022-07-06T02:00:33;4.77;;;4.07;;
11090;SDS011;5599;52.210;21.046;2022-07-06T02:03:02;4.67;;;4.27;;
11090;SDS011;5599;52.210;21.046;2022-07-06T02:05:36;7.60;;;4.37;;
11090;SDS011;5599;52.210;21.046;2022-07-06T02:08:05;4.43;;;3.87;;
11090;SDS011;5599;52.210;21.046;2022-07-06T02:10:35;5.47;;;4.30;;
11090;SDS011;5599;52.210;21.046;2022-07-06T02:13:04;5.20;;;4.07;;
11090;SDS011;5599;52.210;21.046;2022-07-06T02:15:33;4.53;;;3.83;;
11090;SDS011;5599;52.210;21.046;2022-07-06T02:18:03;6.03;;;4.30;;
11090;SDS011;5599;52.210;21.046;2022-07-06T02:20:32;4.77;;;3.97;;
11090;SDS011;5599;52.210;21.046;2022-07-06T02:23:03;5.00;;;4.60;;
11090;SDS011;5599;52.210;21.046;2022-07-06T02:25:33;6.17;;;4.50;;
11090;SDS011;5599;52.210;21.046;2022-07-06T02:28:02;7.93;;;4.20;;
11090;SDS011;5599;52.210;21.046;2022-07-06T02:30:32;5.97;;;4.40;;
11090;SDS011;5599;52.210;21.046;2022-07-06T02:33:03;4.53;;;4.13;;
11090;SDS011;5599;52.210;21.046;2022-07-06T02:35:33;4.87;;;4.47;;
11090;SDS011;5599;52.210;21.046;2022-07-06T02:38:06;6.00;;;4.57;;
11090;SDS011;5599;52.210;21.046;2022-07-06T02:40:36;4.50;;;4.10;;
11090;SDS011;5599;52.210;21.046;2022-07-06T02:43:06;7.73;;;4.50;;
11090;SDS011;5599;52.210;21.046;2022-07-06T02:45:36;6.00;;;3.97;;
11090;SDS011;5599;52.210;21.046;2022-07-06T02:48:08;5.03;;;4.27;;
11090;SDS011;5599;52.210;21.046;2022-07-06T02:50:37;4.30;;;4.00;;
11090;SDS011;5599;52.210;21.046;2022-07-06T02:53:08;4.57;;;3.97;;
11090;SDS011;5599;52.210;21.046;2022-07-06T02:55:37;4.37;;;3.83;;
11090;SDS011;5599;52.210;21.046;2022-07-06T02:58:06;4.00;;;3.70;;
11090;SDS011;5599;52.210;21.046;2022-07-06T03:00:36;3.93;;;3.63;;
11090;SDS011;5599;52.210;21.046;2022-07-06T03:03:05;4.83;;;3.67;;
11090;SDS011;5599;52.210;21.046;2022-07-06T03:05:36;3.77;;;3.43;;
11090;SDS011;5599;52.210;21.046;2022-07-06T03:08:08;4.07;;;3.77;;
11090;SDS011;5599;52.210;21.046;2022-07-06T03:10:37;5.03;;;4.53;;
11090;SDS011;5599;52.210;21.046;2022-07-06T03:13:06;4.83;;;4.30;;
11090;SDS011;5599;52.210;21.046;2022-07-06T03:15:36;6.13;;;4.47;;
11090;SDS011;5599;52.210;21.046;2022-07-06T03:18:06;4.73;;;4.33;;
11090;SDS011;5599;52.210;21.046;2022-07-06T03:20:35;7.27;;;4.57;;
11090;SDS011;5599;52.210;21.046;2022-07-06T03:23:09;5.10;;;4.63;;
11090;SDS011;5599;52.210;21.046;2022-07-06T03:25:38;6.33;;;4.73;;
11090;SDS011;5599;52.210;21.046;2022-07-06T03:28:08;4.43;;;4.03;;
11090;SDS011;5599;52.210;21.046;2022-07-06T03:30:37;4.73;;;4.30;;
11090;SDS011;5599;52.210;21.046;2022-07-06T03:33:07;5.33;;;4.80;;
11090;SDS011;5599;52.210;21.046;2022-07-06T03:35:36;4.80;;;4.43;;
11090;SDS011;5599;52.210;21.046;2022-07-06T03:38:09;5.47;;;4.27;;
11090;SDS011;5599;52.210;21.046;2022-07-06T03:40:40;8.57;;;4.23;;
11090;SDS011;5599;52.210;21.046;2022-07-06T03:43:10;6.03;;;4.10;;
11090;SDS011;5599;52.210;21.046;2022-07-06T03:45:41;7.37;;;4.90;;
11090;SDS011;5599;52.210;21.046;2022-07-06T03:48:10;5.07;;;4.57;;
11090;SDS011;5599;52.210;21.046;2022-07-06T03:50:41;7.03;;;4.60;;
11090;SDS011;5599;52.210;21.046;2022-07-06T03:53:12;4.43;;;4.03;;
11090;SDS011;5599;52.210;21.046;2022-07-06T03:55:41;4.93;;;4.20;;
11090;SDS011;5599;52.210;21.046;2022-07-06T03:58:31;4.63;;;3.80;;
11090;SDS011;5599;52.210;21.046;2022-07-06T04:01:01;3.97;;;3.67;;
11090;SDS011;5599;52.210;21.046;2022-07-06T04:03:30;4.20;;;3.33;;
11090;SDS011;5599;52.210;21.046;2022-07-06T04:06:01;6.23;;;4.30;;
11090;SDS011;5599;52.210;21.046;2022-07-06T04:08:34;4.73;;;3.63;;
11090;SDS011;5599;52.210;21.046;2022-07-06T04:11:03;3.60;;;3.30;;
11090;SDS011;5599;52.210;21.046;2022-07-06T04:13:32;6.23;;;3.60;;
11090;SDS011;5599;52.210;21.046;2022-07-06T04:16:02;4.83;;;3.40;;
11090;SDS011;5599;52.210;21.046;2022-07-06T04:18:32;3.40;;;3.10;;
11090;SDS011;5599;52.210;21.046;2022-07-06T04:21:03;4.67;;;3.63;;
11090;SDS011;5599;52.210;21.046;2022-07-06T04:23:37;5.77;;;3.53;;
11090;SDS011;5599;52.210;21.046;2022-07-06T04:26:08;5.23;;;3.20;;
11090;SDS011;5599;52.210;21.046;2022-07-06T04:28:39;3.77;;;3.33;;
11090;SDS011;5599;52.210;21.046;2022-07-06T04:31:08;4.57;;;3.30;;
11090;SDS011;5599;52.210;21.046;2022-07-06T04:33:39;3.50;;;3.20;;
11090;SDS011;5599;52.210;21.046;2022-07-06T04:36:09;6.30;;;3.93;;
11090;SDS011;5599;52.210;21.046;2022-07-06T04:38:43;4.13;;;3.00;;
11090;SDS011;5599;52.210;21.046;2022-07-06T04:41:15;4.73;;;3.60;;
11090;SDS011;5599;52.210;21.046;2022-07-06T04:43:45;4.13;;;3.70;;
11090;SDS011;5599;52.210;21.046;2022-07-06T04:46:17;4.60;;;3.70;;
11090;SDS011;5599;52.210;21.046;2022-07-06T04:48:50;3.93;;;3.23;;
11090;SDS011;5599;52.210;21.046;2022-07-06T04:51:25;4.80;;;4.00;;
11090;SDS011;5599;52.210;21.046;2022-07-06T04:53:57;3.97;;;3.60;;
11090;SDS011;5599;52.210;21.046;2022-07-06T04:56:27;5.50;;;3.97;;
11090;SDS011;5599;52.210;21.046;2022-07-06T04:58:57;4.53;;;4.13;;
11090;SDS011;5599;52.210;21.046;2022-07-06T05:01:27;13.43;;;11.80;;
11090;SDS011;5599;52.210;21.046;2022-07-06T05:03:57;4.97;;;4.43;;
11090;SDS011;5599;52.210;21.046;2022-07-06T05:06:27;4.73;;;4.30;;
11090;SDS011;5599;52.210;21.046;2022-07-06T05:08:59;4.63;;;3.50;;
11090;SDS011;5599;52.210;21.046;2022-07-06T05:11:31;5.90;;;4.83;;
11090;SDS011;5599;52.210;21.046;2022-07-06T05:14:01;4.30;;;3.90;;
11090;SDS011;5599;52.210;21.046;2022-07-06T05:16:30;4.37;;;3.97;;
11090;SDS011;5599;52.210;21.046;2022-07-06T05:19:00;4.53;;;4.20;;
11090;SDS011;5599;52.210;21.046;2022-07-06T05:21:30;4.63;;;3.70;;
11090;SDS011;5599;52.210;21.046;2022-07-06T05:24:00;4.93;;;4.20;;
11090;SDS011;5599;52.210;21.046;2022-07-06T05:26:30;4.30;;;3.90;;
11090;SDS011;5599;52.210;21.046;2022-07-06T05:28:59;4.43;;;3.97;;
11090;SDS011;5599;52.210;21.046;2022-07-06T05:31:29;4.77;;;3.90;;
11090;SDS011;5599;52.210;21.046;2022-07-06T05:33:58;4.30;;;3.90;;
11090;SDS011;5599;52.210;21.046;2022-07-06T05:36:28;4.00;;;3.30;;
11090;SDS011;5599;52.210;21.046;2022-07-06T05:38:58;4.30;;;3.90;;
11090;SDS011;5599;52.210;21.046;2022-07-06T05:41:29;3.83;;;3.53;;
11090;SDS011;5599;52.210;21.046;2022-07-06T05:44:00;5.03;;;4.13;;
11090;SDS011;5599;52.210;21.046;2022-07-06T05:46:29;4.37;;;3.93;;
11090;SDS011;5599;52.210;21.046;2022-07-06T05:48:59;4.33;;;3.93;;
11090;SDS011;5599;52.210;21.046;2022-07-06T05:51:46;4.40;;;4.00;;
11090;SDS011;5599;52.210;21.046;2022-07-06T05:54:18;5.77;;;4.20;;
11090;SDS011;5599;52.210;21.046;2022-07-06T05:56:49;5.13;;;3.80;;
11090;SDS011;5599;52.210;21.046;2022-07-06T05:59:19;4.23;;;3.73;;
11090;SDS011;5599;52.210;21.046;2022-07-06T06:01:49;3.90;;;3.60;;
11090;SDS011;5599;52.210;21.046;2022-07-06T06:04:22;4.20;;;3.70;;
11090;SDS011;5599;52.210;21.046;2022-07-06T06:06:51;4.07;;;3.67;;
11090;SDS011;5599;52.210;21.046;2022-07-06T06:09:20;4.37;;;3.97;;
11090;SDS011;5599;52.210;21.046;2022-07-06T06:11:52;4.87;;;4.17;;
11090;SDS011;5599;52.210;21.046;2022-07-06T06:14:21;5.60;;;4.00;;
11090;SDS011;5599;52.210;21.046;2022-07-06T06:16:51;4.77;;;4.27;;
11090;SDS011;5599;52.210;21.046;2022-07-06T06:19:20;4.50;;;3.93;;
11090;SDS011;5599;52.210;21.046;2022-07-06T06:21:50;7.23;;;4.93;;
11090;SDS011;5599;52.210;21.046;2022-07-06T06:24:19;6.20;;;5.60;;
11090;SDS011;5599;52.210;21.046;2022-07-06T06:26:52;4.75;;;4.22;;
11090;SDS011;5599;52.210;21.046;2022-07-06T06:29:22;5.23;;;3.77;;
11090;SDS011;5599;52.210;21.046;2022-07-06T06:31:51;5.70;;;4.18;;
11090;SDS011;5599;52.210;21.046;2022-07-06T06:34:20;3.95;;;3.53;;
11090;SDS011;5599;52.210;21.046;2022-07-06T06:36:50;5.53;;;3.33;;
11090;SDS011;5599;52.210;21.046;2022-07-06T06:39:19;4.30;;;3.85;;
11090;SDS011;5599;52.210;21.046;2022-07-06T06:41:49;7.87;;;4.40;;
11090;SDS011;5599;52.210;21.046;2022-07-06T06:44:19;4.50;;;3.87;;
11090;SDS011;5599;52.210;21.046;2022-07-06T06:46:50;3.83;;;3.53;;
11090;SDS011;5599;52.210;21.046;2022-07-06T06:49:20;6.13;;;4.00;;
11090;SDS011;5599;52.210;21.046;2022-07-06T06:51:49;4.47;;;3.30;;
11090;SDS011;5599;52.210;21.046;2022-07-06T06:54:38;6.38;;;3.30;;
11090;SDS011;5599;52.210;21.046;2022-07-06T06:57:08;4.63;;;3.72;;
11090;SDS011;5599;52.210;21.046;2022-07-06T06:59:38;4.40;;;4.00;;
11090;SDS011;5599;52.210;21.046;2022-07-06T07:02:08;4.85;;;4.38;;
11090;SDS011;5599;52.210;21.046;2022-07-06T07:04:37;4.47;;;4.05;;
11090;SDS011;5599;52.210;21.046;2022-07-06T07:07:06;4.38;;;3.97;;
11090;SDS011;5599;52.210;21.046;2022-07-06T07:09:36;8.13;;;4.63;;
11090;SDS011;5599;52.210;21.046;2022-07-06T07:12:05;5.40;;;4.75;;
11090;SDS011;5599;52.210;21.046;2022-07-06T07:14:35;5.32;;;4.80;;
11090;SDS011;5599;52.210;21.046;2022-07-06T07:17:07;6.35;;;4.80;;
11090;SDS011;5599;52.210;21.046;2022-07-06T07:19:37;6.63;;;5.47;;
11090;SDS011;5599;52.210;21.046;2022-07-06T07:22:07;7.63;;;5.30;;
11090;SDS011;5599;52.210;21.046;2022-07-06T07:24:37;7.88;;;4.93;;
11090;SDS011;5599;52.210;21.046;2022-07-06T07:27:07;6.85;;;4.15;;
11090;SDS011;5599;52.210;21.046;2022-07-06T07:29:36;5.50;;;4.30;;
11090;SDS011;5599;52.210;21.046;2022-07-06T07:32:07;6.05;;;4.38;;
11090;SDS011;5599;52.210;21.046;2022-07-06T07:34:37;4.85;;;4.25;;
11090;SDS011;5599;52.210;21.046;2022-07-06T07:37:07;9.07;;;5.55;;
11090;SDS011;5599;52.210;21.046;2022-07-06T07:39:37;5.63;;;5.13;;
11090;SDS011;5599;52.210;21.046;2022-07-06T07:42:07;6.90;;;5.03;;
11090;SDS011;5599;52.210;21.046;2022-07-06T07:44:43;8.75;;;5.28;;
11090;SDS011;5599;52.210;21.046;2022-07-06T07:47:15;5.80;;;5.22;;
11090;SDS011;5599;52.210;21.046;2022-07-06T07:49:45;7.70;;;5.05;;
11090;SDS011;5599;52.210;21.046;2022-07-06T07:52:14;9.23;;;4.85;;
11090;SDS011;5599;52.210;21.046;2022-07-06T07:54:44;5.70;;;4.50;;
11090;SDS011;5599;52.210;21.046;2022-07-06T07:57:34;6.05;;;4.10;;
11090;SDS011;5599;52.210;21.046;2022-07-06T08:00:05;4.30;;;3.70;;
11090;SDS011;5599;52.210;21.046;2022-07-06T08:02:40;6.70;;;3.45;;
11090;SDS011;5599;52.210;21.046;2022-07-06T08:05:10;4.00;;;3.60;;
11090;SDS011;5599;52.210;21.046;2022-07-06T08:07:42;3.25;;;2.92;;
11090;SDS011;5599;52.210;21.046;2022-07-06T08:10:11;6.30;;;2.97;;
11090;SDS011;5599;52.210;21.046;2022-07-06T08:12:41;4.70;;;3.30;;
11090;SDS011;5599;52.210;21.046;2022-07-06T08:15:12;3.35;;;2.80;;
11090;SDS011;5599;52.210;21.046;2022-07-06T08:17:43;4.47;;;2.63;;
11090;SDS011;5599;52.210;21.046;2022-07-06T08:20:12;3.28;;;2.60;;
11090;SDS011;5599;52.210;21.046;2022-07-06T08:22:42;5.65;;;3.15;;
11090;SDS011;5599;52.210;21.046;2022-07-06T08:25:12;4.18;;;2.60;;
11090;SDS011;5599;52.210;21.046;2022-07-06T08:27:42;2.70;;;2.13;;
11090;SDS011;5599;52.210;21.046;2022-07-06T08:30:12;4.57;;;2.90;;
11090;SDS011;5599;52.210;21.046;2022-07-06T08:32:43;4.38;;;2.40;;
11090;SDS011;5599;52.210;21.046;2022-07-06T08:35:32;4.35;;;2.40;;
11090;SDS011;5599;52.210;21.046;2022-07-06T08:38:02;2.45;;;2.20;;
11090;SDS011;5599;52.210;21.046;2022-07-06T08:40:32;3.15;;;1.85;;
11090;SDS011;5599;52.210;21.046;2022-07-06T08:43:08;3.47;;;2.22;;
11090;SDS011;5599;52.210;21.046;2022-07-06T08:45:37;8.75;;;2.25;;
11090;SDS011;5599;52.210;21.046;2022-07-06T08:48:10;4.18;;;2.30;;
11090;SDS011;5599;52.210;21.046;2022-07-06T08:50:40;3.70;;;1.67;;
11090;SDS011;5599;52.210;21.046;2022-07-06T08:53:10;2.15;;;1.70;;
11090;SDS011;5599;52.210;21.046;2022-07-06T08:55:39;3.10;;;2.10;;
11090;SDS011;5599;52.210;21.046;2022-07-06T08:58:08;6.00;;;1.90;;
11090;SDS011;5599;52.210;21.046;2022-07-06T09:00:38;7.40;;;2.00;;
11090;SDS011;5599;52.210;21.046;2022-07-06T09:03:12;3.50;;;1.92;;
11090;SDS011;5599;52.210;21.046;2022-07-06T09:05:42;5.95;;;1.88;;
11090;SDS011;5599;52.210;21.046;2022-07-06T09:08:21;3.53;;;1.70;;
11090;SDS011;5599;52.210;21.046;2022-07-06T09:10:53;2.55;;;1.63;;
11090;SDS011;5599;52.210;21.046;2022-07-06T09:13:23;3.03;;;1.92;;
11090;SDS011;5599;52.210;21.046;2022-07-06T09:15:53;5.03;;;2.22;;
11090;SDS011;5599;52.210;21.046;2022-07-06T09:18:45;4.22;;;1.85;;
11090;SDS011;5599;52.210;21.046;2022-07-06T09:21:22;3.25;;;2.10;;
11090;SDS011;5599;52.210;21.046;2022-07-06T09:23:53;3.60;;;2.00;;
11090;SDS011;5599;52.210;21.046;2022-07-06T09:26:23;5.63;;;1.77;;
11090;SDS011;5599;52.210;21.046;2022-07-06T09:28:55;5.43;;;2.28;;
11090;SDS011;5599;52.210;21.046;2022-07-06T09:31:26;3.38;;;1.73;;
11090;SDS011;5599;52.210;21.046;2022-07-06T09:33:58;4.20;;;2.08;;
11090;SDS011;5599;52.210;21.046;2022-07-06T09:36:37;3.17;;;2.08;;
11090;SDS011;5599;52.210;21.046;2022-07-06T09:39:17;5.05;;;1.75;;
11090;SDS011;5599;52.210;21.046;2022-07-06T09:41:49;3.38;;;1.70;;
11090;SDS011;5599;52.210;21.046;2022-07-06T09:44:23;1.88;;;1.60;;
11090;SDS011;5599;52.210;21.046;2022-07-06T09:46:55;7.45;;;4.05;;
11090;SDS011;5599;52.210;21.046;2022-07-06T09:49:28;4.88;;;1.92;;
11090;SDS011;5599;52.210;21.046;2022-07-06T09:51:58;3.97;;;2.10;;
11090;SDS011;5599;52.210;21.046;2022-07-06T09:54:29;3.58;;;1.60;;
11090;SDS011;5599;52.210;21.046;2022-07-06T09:56:59;2.33;;;1.58;;
11090;SDS011;5599;52.210;21.046;2022-07-06T09:59:35;2.28;;;1.60;;
11090;SDS011;5599;52.210;21.046;2022-07-06T10:02:06;2.67;;;1.30;;
11090;SDS011;5599;52.210;21.046;2022-07-06T10:04:38;2.53;;;1.77;;
11090;SDS011;5599;52.210;21.046;2022-07-06T10:07:08;3.70;;;1.42;;
11090;SDS011;5599;52.210;21.046;2022-07-06T10:09:38;6.65;;;1.50;;
11090;SDS011;5599;52.210;21.046;2022-07-06T10:12:09;3.05;;;1.60;;
11090;SDS011;5599;52.210;21.046;2022-07-06T10:14:42;1.63;;;1.30;;
11090;SDS011;5599;52.210;21.046;2022-07-06T10:17:17;2.17;;;1.23;;
11090;SDS011;5599;52.210;21.046;2022-07-06T10:19:49;2.67;;;1.42;;
11090;SDS011;5599;52.210;21.046;2022-07-06T10:22:19;3.50;;;2.05;;
11090;SDS011;5599;52.210;21.046;2022-07-06T10:24:49;5.30;;;1.95;;
11090;SDS011;5599;52.210;21.046;2022-07-06T10:27:19;1.75;;;1.20;;
11090;SDS011;5599;52.210;21.046;2022-07-06T10:29:50;4.22;;;1.73;;
11090;SDS011;5599;52.210;21.046;2022-07-06T10:32:19;3.15;;;1.45;;
11090;SDS011;5599;52.210;21.046;2022-07-06T10:34:53;3.10;;;1.77;;
11090;SDS011;5599;52.210;21.046;2022-07-06T10:37:23;3.90;;;1.40;;
11090;SDS011;5599;52.210;21.046;2022-07-06T10:39:53;3.58;;;1.45;;
11090;SDS011;5599;52.210;21.046;2022-07-06T10:42:41;2.25;;;1.40;;
11090;SDS011;5599;52.210;21.046;2022-07-06T10:45:11;2.00;;;1.50;;
11090;SDS011;5599;52.210;21.046;2022-07-06T10:47:53;1.33;;;1.20;;
11090;SDS011;5599;52.210;21.046;2022-07-06T10:50:51;3.10;;;1.40;;
11090;SDS011;5599;52.210;21.046;2022-07-06T10:53:22;4.30;;;1.45;;
11090;SDS011;5599;52.210;21.046;2022-07-06T10:55:52;3.20;;;1.45;;
11090;SDS011;5599;52.210;21.046;2022-07-06T10:58:36;2.28;;;1.50;;
11090;SDS011;5599;52.210;21.046;2022-07-06T11:01:09;2.42;;;1.30;;
11090;SDS011;5599;52.210;21.046;2022-07-06T11:03:40;1.85;;;1.40;;
11090;SDS011;5599;52.210;21.046;2022-07-06T11:06:13;2.10;;;1.33;;
11090;SDS011;5599;52.210;21.046;2022-07-06T11:08:44;3.78;;;1.50;;
11090;SDS011;5599;52.210;21.046;2022-07-06T11:11:24;1.20;;;1.10;;
11090;SDS011;5599;52.210;21.046;2022-07-06T11:14:06;2.10;;;1.38;;
11090;SDS011;5599;52.210;21.046;2022-07-06T11:16:36;4.70;;;1.60;;
11090;SDS011;5599;52.210;21.046;2022-07-06T11:19:08;1.40;;;1.20;;
11090;SDS011;5599;52.210;21.046;2022-07-06T11:21:47;3.15;;;1.70;;
11090;SDS011;5599;52.210;21.046;2022-07-06T11:24:19;2.65;;;1.23;;
11090;SDS011;5599;52.210;21.046;2022-07-06T11:26:50;1.83;;;1.45;;
11090;SDS011;5599;52.210;21.046;2022-07-06T11:29:21;3.45;;;1.60;;
11090;SDS011;5599;52.210;21.046;2022-07-06T11:31:52;1.98;;;1.30;;
11090;SDS011;5599;52.210;21.046;2022-07-06T11:34:25;5.25;;;1.95;;
11090;SDS011;5599;52.210;21.046;2022-07-06T11:36:58;1.98;;;1.52;;
11090;SDS011;5599;52.210;21.046;2022-07-06T11:39:29;4.97;;;1.88;;
11090;SDS011;5599;52.210;21.046;2022-07-06T11:41:59;2.22;;;1.50;;
11090;SDS011;5599;52.210;21.046;2022-07-06T11:44:31;2.17;;;1.40;;
11090;SDS011;5599;52.210;21.046;2022-07-06T11:47:01;1.70;;;1.33;;
11090;SDS011;5599;52.210;21.046;2022-07-06T11:49:32;4.45;;;1.30;;
11090;SDS011;5599;52.210;21.046;2022-07-06T11:52:06;1.58;;;1.20;;
11090;SDS011;5599;52.210;21.046;2022-07-06T11:54:38;4.03;;;1.30;;
11090;SDS011;5599;52.210;21.046;2022-07-06T11:57:08;3.13;;;1.50;;
11090;SDS011;5599;52.210;21.046;2022-07-06T11:59:39;2.70;;;1.30;;
11090;SDS011;5599;52.210;21.046;2022-07-06T12:02:14;5.90;;;1.83;;
11090;SDS011;5599;52.210;21.046;2022-07-06T12:04:44;1.67;;;1.23;;
11090;SDS011;5599;52.210;21.046;2022-07-06T12:07:16;4.78;;;1.30;;
11090;SDS011;5599;52.210;21.046;2022-07-06T12:09:46;3.08;;;1.50;;
11090;SDS011;5599;52.210;21.046;2022-07-06T12:12:16;1.67;;;1.30;;
11090;SDS011;5599;52.210;21.046;2022-07-06T12:14:46;2.95;;;1.42;;
11090;SDS011;5599;52.210;21.046;2022-07-06T12:17:16;2.38;;;1.40;;
11090;SDS011;5599;52.210;21.046;2022-07-06T12:19:45;4.22;;;1.50;;
11090;SDS011;5599;52.210;21.046;2022-07-06T12:22:25;1.83;;;1.20;;
11090;SDS011;5599;52.210;21.046;2022-07-06T12:24:55;2.55;;;1.25;;
11090;SDS011;5599;52.210;21.046;2022-07-06T12:27:33;2.83;;;1.50;;
11090;SDS011;5599;52.210;21.046;2022-07-06T12:30:09;2.05;;;1.50;;
11090;SDS011;5599;52.210;21.046;2022-07-06T12:32:46;1.60;;;1.10;;
11090;SDS011;5599;52.210;21.046;2022-07-06T12:35:36;2.92;;;1.50;;
11090;SDS011;5599;52.210;21.046;2022-07-06T12:38:08;2.10;;;1.38;;
11090;SDS011;5599;52.210;21.046;2022-07-06T12:40:38;2.47;;;1.42;;
11090;SDS011;5599;52.210;21.046;2022-07-06T12:43:08;1.85;;;1.48;;
11090;SDS011;5599;52.210;21.046;2022-07-06T12:45:37;4.78;;;1.25;;
11090;SDS011;5599;52.210;21.046;2022-07-06T12:48:07;2.75;;;1.42;;
11090;SDS011;5599;52.210;21.046;2022-07-06T12:50:37;2.72;;;1.30;;
11090;SDS011;5599;52.210;21.046;2022-07-06T12:53:23;3.80;;;1.30;;
11090;SDS011;5599;52.210;21.046;2022-07-06T12:56:07;1.80;;;1.10;;
11090;SDS011;5599;52.210;21.046;2022-07-06T12:58:37;3.03;;;1.33;;
11090;SDS011;5599;52.210;21.046;2022-07-06T13:01:07;2.80;;;1.42;;
11090;SDS011;5599;52.210;21.046;2022-07-06T13:03:43;3.80;;;1.60;;
11090;SDS011;5599;52.210;21.046;2022-07-06T13:06:13;2.80;;;1.33;;
11090;SDS011;5599;52.210;21.046;2022-07-06T13:08:44;1.90;;;1.50;;
11090;SDS011;5599;52.210;21.046;2022-07-06T13:11:14;1.70;;;1.30;;
11090;SDS011;5599;52.210;21.046;2022-07-06T13:13:43;2.35;;;1.63;;
11090;SDS011;5599;52.210;21.046;2022-07-06T13:16:13;2.28;;;1.30;;
11090;SDS011;5599;52.210;21.046;2022-07-06T13:18:43;1.52;;;1.23;;
11090;SDS011;5599;52.210;21.046;2022-07-06T13:21:13;2.78;;;1.40;;
11090;SDS011;5599;52.210;21.046;2022-07-06T13:23:44;3.70;;;1.23;;
11090;SDS011;5599;52.210;21.046;2022-07-06T13:26:14;1.90;;;1.20;;
11090;SDS011;5599;52.210;21.046;2022-07-06T13:28:43;2.67;;;1.58;;
11090;SDS011;5599;52.210;21.046;2022-07-06T13:31:13;5.57;;;1.40;;
11090;SDS011;5599;52.210;21.046;2022-07-06T13:33:43;3.50;;;1.58;;
11090;SDS011;5599;52.210;21.046;2022-07-06T13:36:12;2.17;;;1.30;;
11090;SDS011;5599;52.210;21.046;2022-07-06T13:38:44;4.07;;;1.63;;
11090;SDS011;5599;52.210;21.046;2022-07-06T13:41:14;1.60;;;1.17;;
11090;SDS011;5599;52.210;21.046;2022-07-06T13:43:44;3.28;;;1.80;;
11090;SDS011;5599;52.210;21.046;2022-07-06T13:46:14;3.03;;;1.60;;
11090;SDS011;5599;52.210;21.046;2022-07-06T13:48:45;2.08;;;1.58;;
11090;SDS011;5599;52.210;21.046;2022-07-06T13:51:15;1.50;;;1.40;;
11090;SDS011;5599;52.210;21.046;2022-07-06T13:53:46;5.45;;;1.92;;
11090;SDS011;5599;52.210;21.046;2022-07-06T13:56:15;2.08;;;1.30;;
11090;SDS011;5599;52.210;21.046;2022-07-06T13:58:45;1.80;;;1.30;;
11090;SDS011;5599;52.210;21.046;2022-07-06T14:01:15;2.67;;;1.52;;
11090;SDS011;5599;52.210;21.046;2022-07-06T14:03:52;3.60;;;1.40;;
11090;SDS011;5599;52.210;21.046;2022-07-06T14:06:22;2.88;;;1.30;;
11090;SDS011;5599;52.210;21.046;2022-07-06T14:08:53;4.75;;;1.30;;
11090;SDS011;5599;52.210;21.046;2022-07-06T14:11:23;2.50;;;1.60;;
11090;SDS011;5599;52.210;21.046;2022-07-06T14:13:53;2.58;;;1.40;;
11090;SDS011;5599;52.210;21.046;2022-07-06T14:16:22;4.10;;;1.40;;
11090;SDS011;5599;52.210;21.046;2022-07-06T14:18:52;2.85;;;1.40;;
11090;SDS011;5599;52.210;21.046;2022-07-06T14:21:21;1.27;;;1.10;;
11090;SDS011;5599;52.210;21.046;2022-07-06T14:23:51;3.50;;;1.33;;
11090;SDS011;5599;52.210;21.046;2022-07-06T14:26:23;1.92;;;1.50;;
11090;SDS011;5599;52.210;21.046;2022-07-06T14:28:53;4.70;;;1.40;;
11090;SDS011;5599;52.210;21.046;2022-07-06T14:31:23;1.95;;;1.40;;
11090;SDS011;5599;52.210;21.046;2022-07-06T14:33:53;4.60;;;1.90;;
11090;SDS011;5599;52.210;21.046;2022-07-06T14:36:23;8.52;;;7.13;;
11090;SDS011;5599;52.210;21.046;2022-07-06T14:38:53;5.43;;;1.83;;
11090;SDS011;5599;52.210;21.046;2022-07-06T14:41:25;1.80;;;1.60;;
11090;SDS011;5599;52.210;21.046;2022-07-06T14:43:55;2.20;;;1.58;;
11090;SDS011;5599;52.210;21.046;2022-07-06T14:46:25;2.05;;;1.60;;
11090;SDS011;5599;52.210;21.046;2022-07-06T14:48:55;6.18;;;1.92;;
11090;SDS011;5599;52.210;21.046;2022-07-06T14:51:24;5.03;;;1.80;;
11090;SDS011;5599;52.210;21.046;2022-07-06T14:53:54;2.13;;;1.70;;
11090;SDS011;5599;52.210;21.046;2022-07-06T14:56:25;6.10;;;1.60;;
11090;SDS011;5599;52.210;21.046;2022-07-06T14:58:54;2.83;;;1.35;;
11090;SDS011;5599;52.210;21.046;2022-07-06T15:01:44;2.28;;;1.40;;
11090;SDS011;5599;52.210;21.046;2022-07-06T15:04:14;2.42;;;1.52;;
11090;SDS011;5599;52.210;21.046;2022-07-06T15:06:44;2.30;;;2.03;;
11090;SDS011;5599;52.210;21.046;2022-07-06T15:09:23;3.85;;;1.90;;
11090;SDS011;5599;52.210;21.046;2022-07-06T15:11:55;4.85;;;1.90;;
11090;SDS011;5599;52.210;21.046;2022-07-06T15:14:24;3.17;;;1.70;;